sensor_id;sensor_type;location;lat;lon;timestamp;P1;durP1;ratioP1;P2;durP2;ratioP2
72337;SDS011;60294;64.134;-21.862;2023-01-24T00:01:51;3.10;;;1.00;;
72337;SDS011;60294;64.134;-21.862;2023-01-24T00:04:40;2.37;;;0.70;;
72337;SDS011;60294;64.134;-21.862;2023-01-24T00:07:06;2.07;;;0.93;;
72337;SDS011;60294;64.134;-21.862;2023-01-24T00:09:52;2.33;;;0.60;;
72337;SDS011;60294;64.134;-21.862;2023-01-24T00:12:30;2.77;;;0.57;;
72337;SDS011;60294;64.134;-21.862;2023-01-24T00:15:05;2.53;;;1.33;;
72337;SDS011;60294;64.134;-21.862;2023-01-24T00:17:34;0.97;;;0.40;;
72337;SDS011;60294;64.134;-21.862;2023-01-24T00:20:00;0.73;;;0.50;;
72337;SDS011;60294;64.134;-21.862;2023-01-24T00:22:29;3.60;;;0.80;;
72337;SDS011;60294;64.134;-21.862;2023-01-24T00:25:01;2.60;;;0.50;;
72337;SDS011;60294;64.134;-21.862;2023-01-24T00:27:29;0.43;;;0.40;;
72337;SDS011;60294;64.134;-21.862;2023-01-24T00:29:59;3.50;;;0.87;;
72337;SDS011;60294;64.134;-21.862;2023-01-24T00:32:28;2.80;;;0.80;;
72337;SDS011;60294;64.134;-21.862;2023-01-24T00:34:57;2.97;;;1.00;;
72337;SDS011;60294;64.134;-21.862;2023-01-24T00:37:25;1.97;;;0.53;;
72337;SDS011;60294;64.134;-21.862;2023-01-24T00:39:53;1.77;;;0.80;;
72337;SDS011;60294;64.134;-21.862;2023-01-24T00:42:19;2.83;;;1.30;;
72337;SDS011;60294;64.134;-21.862;2023-01-24T00:44:48;5.67;;;1.60;;
72337;SDS011;60294;64.134;-21.862;2023-01-24T00:49:47;4.03;;;0.63;;
72337;SDS011;60294;64.134;-21.862;2023-01-24T00:52:13;6.70;;;1.53;;
72337;SDS011;60294;64.134;-21.862;2023-01-24T00:54:38;1.30;;;1.20;;
72337;SDS011;60294;64.134;-21.862;2023-01-24T00:57:04;1.50;;;0.67;;
72337;SDS011;60294;64.134;-21.862;2023-01-24T00:59:33;4.23;;;0.70;;
72337;SDS011;60294;64.134;-21.862;2023-01-24T01:02:01;0.87;;;0.67;;
72337;SDS011;60294;64.134;-21.862;2023-01-24T01:04:29;4.93;;;0.90;;
72337;SDS011;60294;64.134;-21.862;2023-01-24T01:06:55;1.97;;;0.60;;
72337;SDS011;60294;64.134;-21.862;2023-01-24T01:09:23;8.07;;;0.90;;
72337;SDS011;60294;64.134;-21.862;2023-01-24T01:11:52;2.57;;;0.50;;
72337;SDS011;60294;64.134;-21.862;2023-01-24T01:14:24;3.73;;;0.77;;
72337;SDS011;60294;64.134;-21.862;2023-01-24T01:17:02;1.13;;;0.50;;
72337;SDS011;60294;64.134;-21.862;2023-01-24T01:19:33;0.77;;;0.60;;
72337;SDS011;60294;64.134;-21.862;2023-01-24T01:21:59;1.27;;;0.90;;
72337;SDS011;60294;64.134;-21.862;2023-01-24T01:24:25;3.23;;;0.57;;
72337;SDS011;60294;64.134;-21.862;2023-01-24T01:26:51;1.53;;;0.50;;
72337;SDS011;60294;64.134;-21.862;2023-01-24T01:29:20;0.20;;;0.20;;
72337;SDS011;60294;64.134;-21.862;2023-01-24T01:31:53;0.40;;;0.30;;
72337;SDS011;60294;64.134;-21.862;2023-01-24T01:34:19;2.17;;;1.13;;
72337;SDS011;60294;64.134;-21.862;2023-01-24T01:36:50;2.73;;;0.30;;
72337;SDS011;60294;64.134;-21.862;2023-01-24T01:39:36;5.50;;;0.80;;
72337;SDS011;60294;64.134;-21.862;2023-01-24T01:42:04;1.77;;;0.93;;
72337;SDS011;60294;64.134;-21.862;2023-01-24T01:45:26;1.53;;;0.20;;
72337;SDS011;60294;64.134;-21.862;2023-01-24T01:48:01;2.37;;;0.67;;
72337;SDS011;60294;64.134;-21.862;2023-01-24T01:51:06;1.40;;;1.17;;
72337;SDS011;60294;64.134;-21.862;2023-01-24T01:53:57;2.90;;;0.73;;
72337;SDS011;60294;64.134;-21.862;2023-01-24T01:59:16;0.30;;;0.30;;
72337;SDS011;60294;64.134;-21.862;2023-01-24T02:01:57;2.30;;;0.28;;
72337;SDS011;60294;64.134;-21.862;2023-01-24T02:04:39;0.40;;;0.40;;
72337;SDS011;60294;64.134;-21.862;2023-01-24T02:10:23;0.20;;;0.20;;
72337;SDS011;60294;64.134;-21.862;2023-01-24T02:13:12;0.30;;;0.20;;
72337;SDS011;60294;64.134;-21.862;2023-01-24T02:15:45;0.97;;;0.40;;
72337;SDS011;60294;64.134;-21.862;2023-01-24T02:18:49;0.97;;;0.40;;
72337;SDS011;60294;64.134;-21.862;2023-01-24T02:23:57;3.90;;;0.60;;
72337;SDS011;60294;64.134;-21.862;2023-01-24T02:29:10;0.60;;;0.40;;
72337;SDS011;60294;64.134;-21.862;2023-01-24T02:31:56;1.07;;;0.23;;
72337;SDS011;60294;64.134;-21.862;2023-01-24T02:34:26;0.20;;;0.20;;
72337;SDS011;60294;64.134;-21.862;2023-01-24T02:36:56;0.37;;;0.30;;
72337;SDS011;60294;64.134;-21.862;2023-01-24T02:42:38;1.13;;;0.47;;
72337;SDS011;60294;64.134;-21.862;2023-01-24T02:45:10;2.37;;;0.50;;
72337;SDS011;60294;64.134;-21.862;2023-01-24T02:47:49;0.30;;;0.30;;
72337;SDS011;60294;64.134;-21.862;2023-01-24T02:50:32;2.55;;;0.47;;
72337;SDS011;60294;64.134;-21.862;2023-01-24T02:53:21;0.40;;;0.23;;
72337;SDS011;60294;64.134;-21.862;2023-01-24T02:56:03;0.20;;;0.20;;
72337;SDS011;60294;64.134;-21.862;2023-01-24T02:58:51;0.20;;;0.20;;
72337;SDS011;60294;64.134;-21.862;2023-01-24T03:01:35;3.53;;;0.87;;
72337;SDS011;60294;64.134;-21.862;2023-01-24T03:04:06;2.10;;;0.60;;
72337;SDS011;60294;64.134;-21.862;2023-01-24T03:06:42;1.00;;;0.30;;
72337;SDS011;60294;64.134;-21.862;2023-01-24T03:09:21;0.43;;;0.40;;
72337;SDS011;60294;64.134;-21.862;2023-01-24T03:12:21;6.23;;;1.07;;
72337;SDS011;60294;64.134;-21.862;2023-01-24T03:15:05;0.87;;;0.30;;
72337;SDS011;60294;64.134;-21.862;2023-01-24T03:17:53;0.33;;;0.30;;
72337;SDS011;60294;64.134;-21.862;2023-01-24T03:20:45;0.57;;;0.20;;
72337;SDS011;60294;64.134;-21.862;2023-01-24T03:23:37;1.90;;;0.60;;
72337;SDS011;60294;64.134;-21.862;2023-01-24T03:26:22;0.63;;;0.57;;
72337;SDS011;60294;64.134;-21.862;2023-01-24T03:29:06;1.67;;;0.67;;
72337;SDS011;60294;64.134;-21.862;2023-01-24T03:31:51;3.10;;;0.40;;
72337;SDS011;60294;64.134;-21.862;2023-01-24T03:34:36;0.20;;;0.20;;
72337;SDS011;60294;64.134;-21.862;2023-01-24T03:37:14;0.50;;;0.30;;
72337;SDS011;60294;64.134;-21.862;2023-01-24T03:40:11;2.60;;;0.23;;
72337;SDS011;60294;64.134;-21.862;2023-01-24T03:42:50;2.03;;;0.60;;
72337;SDS011;60294;64.134;-21.862;2023-01-24T03:45:22;2.87;;;0.50;;
72337;SDS011;60294;64.134;-21.862;2023-01-24T03:48:05;1.80;;;0.43;;
72337;SDS011;60294;64.134;-21.862;2023-01-24T03:50:43;1.27;;;0.37;;
72337;SDS011;60294;64.134;-21.862;2023-01-24T03:53:33;1.20;;;0.23;;
72337;SDS011;60294;64.134;-21.862;2023-01-24T03:56:01;1.33;;;0.83;;
72337;SDS011;60294;64.134;-21.862;2023-01-24T03:58:34;1.93;;;0.37;;
72337;SDS011;60294;64.134;-21.862;2023-01-24T04:01:08;1.60;;;0.40;;
72337;SDS011;60294;64.134;-21.862;2023-01-24T04:03:41;4.20;;;0.50;;
72337;SDS011;60294;64.134;-21.862;2023-01-24T04:06:07;0.97;;;0.30;;
72337;SDS011;60294;64.134;-21.862;2023-01-24T04:08:47;5.57;;;0.83;;
72337;SDS011;60294;64.134;-21.862;2023-01-24T04:11:14;5.40;;;1.80;;
72337;SDS011;60294;64.134;-21.862;2023-01-24T04:14:00;3.80;;;0.77;;
72337;SDS011;60294;64.134;-21.862;2023-01-24T04:16:26;3.67;;;0.70;;
72337;SDS011;60294;64.134;-21.862;2023-01-24T04:18:52;1.70;;;0.60;;
72337;SDS011;60294;64.134;-21.862;2023-01-24T04:21:28;1.27;;;0.50;;
72337;SDS011;60294;64.134;-21.862;2023-01-24T04:24:19;2.00;;;0.43;;
72337;SDS011;60294;64.134;-21.862;2023-01-24T04:26:57;1.07;;;0.50;;
72337;SDS011;60294;64.134;-21.862;2023-01-24T04:29:34;4.33;;;0.50;;
72337;SDS011;60294;64.134;-21.862;2023-01-24T04:32:05;4.45;;;0.80;;
72337;SDS011;60294;64.134;-21.862;2023-01-24T04:34:36;3.53;;;1.00;;
72337;SDS011;60294;64.134;-21.862;2023-01-24T04:37:13;1.73;;;0.33;;
72337;SDS011;60294;64.134;-21.862;2023-01-24T04:39:54;3.03;;;0.83;;
72337;SDS011;60294;64.134;-21.862;2023-01-24T04:42:31;0.83;;;0.33;;
72337;SDS011;60294;64.134;-21.862;2023-01-24T04:45:00;4.73;;;0.83;;
72337;SDS011;60294;64.134;-21.862;2023-01-24T04:47:39;1.27;;;0.40;;
72337;SDS011;60294;64.134;-21.862;2023-01-24T04:50:05;0.63;;;0.30;;
72337;SDS011;60294;64.134;-21.862;2023-01-24T04:52:36;6.07;;;0.40;;
72337;SDS011;60294;64.134;-21.862;2023-01-24T04:55:07;2.78;;;0.20;;
72337;SDS011;60294;64.134;-21.862;2023-01-24T04:57:38;0.53;;;0.30;;
72337;SDS011;60294;64.134;-21.862;2023-01-24T05:00:04;2.73;;;0.30;;
72337;SDS011;60294;64.134;-21.862;2023-01-24T05:02:34;1.73;;;0.30;;
72337;SDS011;60294;64.134;-21.862;2023-01-24T05:05:03;0.33;;;0.30;;
72337;SDS011;60294;64.134;-21.862;2023-01-24T05:07:39;0.10;;;0.10;;
72337;SDS011;60294;64.134;-21.862;2023-01-24T05:10:10;0.20;;;0.20;;
72337;SDS011;60294;64.134;-21.862;2023-01-24T05:12:36;0.23;;;0.23;;
72337;SDS011;60294;64.134;-21.862;2023-01-24T05:15:11;0.10;;;0.10;;
72337;SDS011;60294;64.134;-21.862;2023-01-24T05:17:47;0.20;;;0.20;;
72337;SDS011;60294;64.134;-21.862;2023-01-24T05:20:24;0.20;;;0.17;;
72337;SDS011;60294;64.134;-21.862;2023-01-24T05:22:53;0.23;;;0.20;;
72337;SDS011;60294;64.134;-21.862;2023-01-24T05:25:30;0.63;;;0.27;;
72337;SDS011;60294;64.134;-21.862;2023-01-24T05:28:03;0.30;;;0.20;;
72337;SDS011;60294;64.134;-21.862;2023-01-24T05:30:39;0.10;;;0.10;;
72337;SDS011;60294;64.134;-21.862;2023-01-24T05:33:07;0.20;;;0.20;;
72337;SDS011;60294;64.134;-21.862;2023-01-24T05:35:38;0.20;;;0.20;;
72337;SDS011;60294;64.134;-21.862;2023-01-24T05:38:14;0.20;;;0.20;;
72337;SDS011;60294;64.134;-21.862;2023-01-24T05:40:44;0.30;;;0.17;;
72337;SDS011;60294;64.134;-21.862;2023-01-24T05:43:22;0.20;;;0.20;;
72337;SDS011;60294;64.134;-21.862;2023-01-24T05:45:51;0.57;;;0.50;;
72337;SDS011;60294;64.134;-21.862;2023-01-24T05:48:23;0.20;;;0.20;;
72337;SDS011;60294;64.134;-21.862;2023-01-24T05:50:49;4.30;;;0.37;;
72337;SDS011;60294;64.134;-21.862;2023-01-24T05:53:18;0.10;;;0.10;;
72337;SDS011;60294;64.134;-21.862;2023-01-24T05:55:46;0.10;;;0.10;;
72337;SDS011;60294;64.134;-21.862;2023-01-24T05:58:14;0.10;;;0.10;;
72337;SDS011;60294;64.134;-21.862;2023-01-24T06:00:44;0.20;;;0.20;;
72337;SDS011;60294;64.134;-21.862;2023-01-24T06:03:10;0.73;;;0.23;;
72337;SDS011;60294;64.134;-21.862;2023-01-24T06:05:41;1.13;;;0.30;;
72337;SDS011;60294;64.134;-21.862;2023-01-24T06:08:18;0.10;;;0.10;;
72337;SDS011;60294;64.134;-21.862;2023-01-24T06:10:44;0.33;;;0.20;;
72337;SDS011;60294;64.134;-21.862;2023-01-24T06:13:16;0.20;;;0.20;;
72337;SDS011;60294;64.134;-21.862;2023-01-24T06:15:42;0.10;;;0.10;;
72337;SDS011;60294;64.134;-21.862;2023-01-24T06:18:19;0.33;;;0.33;;
72337;SDS011;60294;64.134;-21.862;2023-01-24T06:20:50;0.70;;;0.20;;
72337;SDS011;60294;64.134;-21.862;2023-01-24T06:23:54;0.20;;;0.20;;
72337;SDS011;60294;64.134;-21.862;2023-01-24T06:26:27;1.97;;;0.20;;
72337;SDS011;60294;64.134;-21.862;2023-01-24T06:29:07;0.13;;;0.13;;
72337;SDS011;60294;64.134;-21.862;2023-01-24T06:40:08;0.25;;;0.20;;
72337;SDS011;60294;64.134;-21.862;2023-01-24T06:42:41;0.20;;;0.20;;
72337;SDS011;60294;64.134;-21.862;2023-01-24T06:45:14;1.47;;;0.40;;
72337;SDS011;60294;64.134;-21.862;2023-01-24T06:47:44;1.33;;;0.50;;
72337;SDS011;60294;64.134;-21.862;2023-01-24T06:50:20;1.87;;;0.30;;
72337;SDS011;60294;64.134;-21.862;2023-01-24T06:53:01;2.73;;;0.43;;
72337;SDS011;60294;64.134;-21.862;2023-01-24T06:55:29;1.35;;;0.40;;
72337;SDS011;60294;64.134;-21.862;2023-01-24T06:57:58;1.77;;;0.60;;
72337;SDS011;60294;64.134;-21.862;2023-01-24T07:00:26;1.20;;;0.27;;
72337;SDS011;60294;64.134;-21.862;2023-01-24T07:03:00;1.60;;;0.67;;
72337;SDS011;60294;64.134;-21.862;2023-01-24T07:05:41;3.53;;;0.60;;
72337;SDS011;60294;64.134;-21.862;2023-01-24T07:08:10;5.77;;;1.17;;
72337;SDS011;60294;64.134;-21.862;2023-01-24T07:10:38;6.50;;;1.70;;
72337;SDS011;60294;64.134;-21.862;2023-01-24T07:13:04;4.33;;;0.60;;
72337;SDS011;60294;64.134;-21.862;2023-01-24T07:15:35;1.07;;;0.60;;
72337;SDS011;60294;64.134;-21.862;2023-01-24T07:18:13;5.57;;;0.83;;
72337;SDS011;60294;64.134;-21.862;2023-01-24T07:20:51;9.10;;;0.97;;
72337;SDS011;60294;64.134;-21.862;2023-01-24T07:23:25;1.90;;;0.57;;
72337;SDS011;60294;64.134;-21.862;2023-01-24T07:25:57;9.50;;;1.77;;
72337;SDS011;60294;64.134;-21.862;2023-01-24T07:28:35;12.60;;;2.07;;
72337;SDS011;60294;64.134;-21.862;2023-01-24T07:31:01;10.37;;;2.23;;
72337;SDS011;60294;64.134;-21.862;2023-01-24T07:33:26;7.37;;;1.50;;
72337;SDS011;60294;64.134;-21.862;2023-01-24T07:35:56;6.80;;;1.80;;
72337;SDS011;60294;64.134;-21.862;2023-01-24T07:38:25;9.27;;;1.40;;
72337;SDS011;60294;64.134;-21.862;2023-01-24T07:40:50;15.07;;;2.10;;
72337;SDS011;60294;64.134;-21.862;2023-01-24T07:43:22;21.87;;;2.13;;
72337;SDS011;60294;64.134;-21.862;2023-01-24T07:45:56;17.80;;;2.87;;
72337;SDS011;60294;64.134;-21.862;2023-01-24T07:48:22;10.37;;;1.37;;
72337;SDS011;60294;64.134;-21.862;2023-01-24T07:51:00;11.13;;;1.67;;
72337;SDS011;60294;64.134;-21.862;2023-01-24T07:53:26;8.73;;;1.10;;
72337;SDS011;60294;64.134;-21.862;2023-01-24T07:56:04;5.53;;;1.03;;
72337;SDS011;60294;64.134;-21.862;2023-01-24T07:58:33;9.03;;;1.20;;
72337;SDS011;60294;64.134;-21.862;2023-01-24T08:01:01;14.30;;;2.40;;
72337;SDS011;60294;64.134;-21.862;2023-01-24T08:03:27;7.13;;;1.53;;
72337;SDS011;60294;64.134;-21.862;2023-01-24T08:06:03;7.17;;;1.70;;
72337;SDS011;60294;64.134;-21.862;2023-01-24T08:08:32;15.77;;;2.90;;
72337;SDS011;60294;64.134;-21.862;2023-01-24T08:11:02;19.97;;;2.10;;
72337;SDS011;60294;64.134;-21.862;2023-01-24T08:13:41;15.87;;;2.10;;
72337;SDS011;60294;64.134;-21.862;2023-01-24T08:16:21;12.97;;;2.50;;
72337;SDS011;60294;64.134;-21.862;2023-01-24T08:18:50;18.73;;;2.10;;
72337;SDS011;60294;64.134;-21.862;2023-01-24T08:21:21;8.50;;;2.20;;
72337;SDS011;60294;64.134;-21.862;2023-01-24T08:23:49;8.47;;;1.80;;
72337;SDS011;60294;64.134;-21.862;2023-01-24T08:26:15;22.47;;;2.10;;
72337;SDS011;60294;64.134;-21.862;2023-01-24T08:28:40;12.63;;;1.83;;
72337;SDS011;60294;64.134;-21.862;2023-01-24T08:31:07;8.20;;;1.40;;
72337;SDS011;60294;64.134;-21.862;2023-01-24T08:33:33;11.23;;;1.47;;
72337;SDS011;60294;64.134;-21.862;2023-01-24T08:36:05;14.40;;;1.87;;
72337;SDS011;60294;64.134;-21.862;2023-01-24T08:38:40;10.47;;;1.73;;
72337;SDS011;60294;64.134;-21.862;2023-01-24T08:41:11;12.70;;;2.23;;
72337;SDS011;60294;64.134;-21.862;2023-01-24T08:43:37;16.03;;;2.00;;
72337;SDS011;60294;64.134;-21.862;2023-01-24T08:46:03;16.47;;;2.10;;
72337;SDS011;60294;64.134;-21.862;2023-01-24T08:48:34;14.43;;;3.33;;
72337;SDS011;60294;64.134;-21.862;2023-01-24T08:51:03;9.33;;;2.50;;
72337;SDS011;60294;64.134;-21.862;2023-01-24T08:53:35;7.72;;;1.05;;
72337;SDS011;60294;64.134;-21.862;2023-01-24T08:56:01;19.27;;;2.43;;
72337;SDS011;60294;64.134;-21.862;2023-01-24T08:58:32;10.97;;;1.40;;
72337;SDS011;60294;64.134;-21.862;2023-01-24T09:01:11;11.73;;;2.10;;
72337;SDS011;60294;64.134;-21.862;2023-01-24T09:03:50;16.87;;;2.23;;
72337;SDS011;60294;64.134;-21.862;2023-01-24T09:06:24;14.73;;;2.17;;
72337;SDS011;60294;64.134;-21.862;2023-01-24T09:08:53;13.43;;;1.90;;
72337;SDS011;60294;64.134;-21.862;2023-01-24T09:11:29;13.40;;;2.00;;
72337;SDS011;60294;64.134;-21.862;2023-01-24T09:13:58;21.13;;;4.70;;
72337;SDS011;60294;64.134;-21.862;2023-01-24T09:16:32;17.47;;;1.73;;
72337;SDS011;60294;64.134;-21.862;2023-01-24T09:19:21;10.83;;;1.83;;
72337;SDS011;60294;64.134;-21.862;2023-01-24T09:22:01;14.67;;;1.60;;
72337;SDS011;60294;64.134;-21.862;2023-01-24T09:24:35;9.97;;;2.30;;
72337;SDS011;60294;64.134;-21.862;2023-01-24T09:27:10;8.33;;;1.50;;
72337;SDS011;60294;64.134;-21.862;2023-01-24T09:29:39;7.63;;;1.47;;
72337;SDS011;60294;64.134;-21.862;2023-01-24T09:32:07;8.53;;;0.67;;
72337;SDS011;60294;64.134;-21.862;2023-01-24T09:34:35;7.63;;;1.00;;
72337;SDS011;60294;64.134;-21.862;2023-01-24T09:37:01;15.13;;;2.17;;
72337;SDS011;60294;64.134;-21.862;2023-01-24T09:39:27;9.43;;;2.27;;
72337;SDS011;60294;64.134;-21.862;2023-01-24T09:45:33;11.93;;;2.17;;
72337;SDS011;60294;64.134;-21.862;2023-01-24T09:48:09;11.13;;;2.07;;
72337;SDS011;60294;64.134;-21.862;2023-01-24T09:53:53;13.10;;;2.37;;
72337;SDS011;60294;64.134;-21.862;2023-01-24T09:56:35;3.50;;;0.70;;
72337;SDS011;60294;64.134;-21.862;2023-01-24T10:02:21;3.10;;;0.93;;
72337;SDS011;60294;64.134;-21.862;2023-01-24T10:05:17;8.17;;;2.17;;
72337;SDS011;60294;64.134;-21.862;2023-01-24T10:10:45;1.97;;;0.60;;
72337;SDS011;60294;64.134;-21.862;2023-01-24T10:16:16;7.47;;;1.60;;
72337;SDS011;60294;64.134;-21.862;2023-01-24T10:24:38;4.87;;;0.97;;
72337;SDS011;60294;64.134;-21.862;2023-01-24T10:27:13;19.63;;;2.40;;
72337;SDS011;60294;64.134;-21.862;2023-01-24T10:29:54;12.07;;;1.52;;
72337;SDS011;60294;64.134;-21.862;2023-01-24T10:32:30;11.23;;;1.47;;
72337;SDS011;60294;64.134;-21.862;2023-01-24T10:35:05;20.67;;;1.47;;
72337;SDS011;60294;64.134;-21.862;2023-01-24T10:37:52;14.57;;;2.60;;
72337;SDS011;60294;64.134;-21.862;2023-01-24T10:40:23;13.37;;;3.30;;
72337;SDS011;60294;64.134;-21.862;2023-01-24T10:48:43;8.73;;;1.63;;
72337;SDS011;60294;64.134;-21.862;2023-01-24T10:50:49;14.07;;;3.20;;
72337;SDS011;60294;64.134;-21.862;2023-01-24T10:56:01;17.33;;;2.13;;
72337;SDS011;60294;64.134;-21.862;2023-01-24T11:01:34;16.70;;;2.97;;
72337;SDS011;60294;64.134;-21.862;2023-01-24T11:04:13;22.37;;;3.03;;
72337;SDS011;60294;64.134;-21.862;2023-01-24T11:06:47;14.20;;;2.07;;
72337;SDS011;60294;64.134;-21.862;2023-01-24T11:09:18;16.63;;;2.20;;
72337;SDS011;60294;64.134;-21.862;2023-01-24T11:11:50;8.43;;;2.83;;
72337;SDS011;60294;64.134;-21.862;2023-01-24T11:14:21;13.32;;;1.58;;
72337;SDS011;60294;64.134;-21.862;2023-01-24T11:16:53;7.43;;;1.53;;
72337;SDS011;60294;64.134;-21.862;2023-01-24T11:21:54;11.90;;;1.37;;
72337;SDS011;60294;64.134;-21.862;2023-01-24T11:24:21;11.20;;;1.70;;
72337;SDS011;60294;64.134;-21.862;2023-01-24T11:30:07;15.03;;;2.20;;
72337;SDS011;60294;64.134;-21.862;2023-01-24T11:32:58;13.33;;;2.57;;
72337;SDS011;60294;64.134;-21.862;2023-01-24T11:41:14;14.73;;;3.33;;
72337;SDS011;60294;64.134;-21.862;2023-01-24T11:43:57;8.30;;;1.77;;
72337;SDS011;60294;64.134;-21.862;2023-01-24T11:46:46;20.00;;;2.30;;
72337;SDS011;60294;64.134;-21.862;2023-01-24T11:51:52;6.93;;;1.27;;
72337;SDS011;60294;64.134;-21.862;2023-01-24T11:54:29;10.80;;;1.70;;
72337;SDS011;60294;64.134;-21.862;2023-01-24T12:07:46;6.37;;;1.23;;
72337;SDS011;60294;64.134;-21.862;2023-01-24T12:13:01;2.50;;;0.77;;
72337;SDS011;60294;64.134;-21.862;2023-01-24T12:20:57;5.80;;;1.50;;
72337;SDS011;60294;64.134;-21.862;2023-01-24T12:23:39;6.63;;;1.03;;
72337;SDS011;60294;64.134;-21.862;2023-01-24T12:26:16;8.77;;;1.77;;
72337;SDS011;60294;64.134;-21.862;2023-01-24T12:29:03;5.33;;;0.83;;
72337;SDS011;60294;64.134;-21.862;2023-01-24T12:42:44;5.10;;;0.90;;
72337;SDS011;60294;64.134;-21.862;2023-01-24T12:45:28;8.30;;;1.33;;
72337;SDS011;60294;64.134;-21.862;2023-01-24T12:48:08;19.07;;;2.77;;
72337;SDS011;60294;64.134;-21.862;2023-01-24T12:51:42;7.13;;;1.40;;
72337;SDS011;60294;64.134;-21.862;2023-01-24T12:54:11;5.27;;;1.60;;
72337;SDS011;60294;64.134;-21.862;2023-01-24T12:57:01;9.25;;;2.00;;
72337;SDS011;60294;64.134;-21.862;2023-01-24T12:59:49;3.80;;;1.27;;
72337;SDS011;60294;64.134;-21.862;2023-01-24T13:13:40;14.40;;;1.73;;
72337;SDS011;60294;64.134;-21.862;2023-01-24T13:19:03;5.10;;;0.87;;
72337;SDS011;60294;64.134;-21.862;2023-01-24T13:24:46;7.77;;;1.70;;
72337;SDS011;60294;64.134;-21.862;2023-01-24T13:32:56;5.40;;;1.83;;
72337;SDS011;60294;64.134;-21.862;2023-01-24T13:35:29;12.10;;;2.63;;
72337;SDS011;60294;64.134;-21.862;2023-01-24T13:38:34;4.53;;;1.13;;
72337;SDS011;60294;64.134;-21.862;2023-01-24T13:40:58;3.70;;;1.23;;
72337;SDS011;60294;64.134;-21.862;2023-01-24T13:51:58;6.83;;;1.37;;
72337;SDS011;60294;64.134;-21.862;2023-01-24T13:59:41;3.57;;;1.07;;
72337;SDS011;60294;64.134;-21.862;2023-01-24T14:02:28;7.17;;;1.00;;
72337;SDS011;60294;64.134;-21.862;2023-01-24T14:05:02;7.93;;;3.37;;
72337;SDS011;60294;64.134;-21.862;2023-01-24T14:07:38;7.53;;;1.40;;
72337;SDS011;60294;64.134;-21.862;2023-01-24T14:10:05;5.93;;;1.07;;
72337;SDS011;60294;64.134;-21.862;2023-01-24T14:12:41;3.83;;;0.80;;
72337;SDS011;60294;64.134;-21.862;2023-01-24T14:15:28;3.10;;;0.80;;
72337;SDS011;60294;64.134;-21.862;2023-01-24T14:21:17;11.17;;;2.50;;
72337;SDS011;60294;64.134;-21.862;2023-01-24T14:23:49;7.97;;;1.30;;
72337;SDS011;60294;64.134;-21.862;2023-01-24T14:26:24;0.90;;;0.50;;
72337;SDS011;60294;64.134;-21.862;2023-01-24T14:29:00;2.90;;;0.97;;
72337;SDS011;60294;64.134;-21.862;2023-01-24T14:31:34;7.75;;;0.95;;
72337;SDS011;60294;64.134;-21.862;2023-01-24T14:36:31;8.73;;;1.33;;
72337;SDS011;60294;64.134;-21.862;2023-01-24T14:39:19;11.20;;;2.17;;
72337;SDS011;60294;64.134;-21.862;2023-01-24T14:41:56;15.77;;;1.65;;
72337;SDS011;60294;64.134;-21.862;2023-01-24T14:44:25;5.30;;;0.90;;
72337;SDS011;60294;64.134;-21.862;2023-01-24T14:49:36;9.30;;;1.20;;
72337;SDS011;60294;64.134;-21.862;2023-01-24T14:52:21;2.27;;;0.83;;
72337;SDS011;60294;64.134;-21.862;2023-01-24T14:54:59;10.53;;;0.90;;
72337;SDS011;60294;64.134;-21.862;2023-01-24T14:57:35;9.03;;;1.10;;
72337;SDS011;60294;64.134;-21.862;2023-01-24T15:02:37;11.60;;;1.97;;
72337;SDS011;60294;64.134;-21.862;2023-01-24T15:05:33;6.03;;;2.28;;
72337;SDS011;60294;64.134;-21.862;2023-01-24T15:08:14;9.27;;;1.93;;
72337;SDS011;60294;64.134;-21.862;2023-01-24T15:11:04;5.70;;;1.10;;
72337;SDS011;60294;64.134;-21.862;2023-01-24T15:13:55;11.52;;;2.38;;
72337;SDS011;60294;64.134;-21.862;2023-01-24T15:16:32;5.57;;;1.63;;
72337;SDS011;60294;64.134;-21.862;2023-01-24T15:21:43;2.27;;;0.40;;
72337;SDS011;60294;64.134;-21.862;2023-01-24T15:27:19;4.60;;;1.33;;
72337;SDS011;60294;64.134;-21.862;2023-01-24T15:32:45;8.90;;;1.70;;
72337;SDS011;60294;64.134;-21.862;2023-01-24T15:40:44;10.43;;;1.33;;
72337;SDS011;60294;64.134;-21.862;2023-01-24T15:43:22;8.40;;;1.60;;
72337;SDS011;60294;64.134;-21.862;2023-01-24T15:46:14;10.43;;;1.53;;
72337;SDS011;60294;64.134;-21.862;2023-01-24T15:49:03;2.27;;;0.53;;
72337;SDS011;60294;64.134;-21.862;2023-01-24T15:52:01;10.53;;;2.20;;
72337;SDS011;60294;64.134;-21.862;2023-01-24T15:54:47;3.80;;;0.70;;
72337;SDS011;60294;64.134;-21.862;2023-01-24T15:59:46;13.73;;;1.70;;
72337;SDS011;60294;64.134;-21.862;2023-01-24T16:02:25;4.63;;;0.70;;
72337;SDS011;60294;64.134;-21.862;2023-01-24T16:04:51;6.00;;;1.10;;
72337;SDS011;60294;64.134;-21.862;2023-01-24T16:07:17;9.00;;;1.53;;
72337;SDS011;60294;64.134;-21.862;2023-01-24T16:09:44;6.43;;;1.13;;
72337;SDS011;60294;64.134;-21.862;2023-01-24T16:12:23;2.63;;;0.50;;
72337;SDS011;60294;64.134;-21.862;2023-01-24T16:14:58;5.60;;;1.20;;
72337;SDS011;60294;64.134;-21.862;2023-01-24T16:17:26;3.80;;;0.70;;
72337;SDS011;60294;64.134;-21.862;2023-01-24T16:19:52;6.70;;;1.10;;
72337;SDS011;60294;64.134;-21.862;2023-01-24T16:22:22;4.10;;;0.83;;
72337;SDS011;60294;64.134;-21.862;2023-01-24T16:24:48;0.30;;;0.30;;
72337;SDS011;60294;64.134;-21.862;2023-01-24T16:27:14;7.87;;;1.17;;
72337;SDS011;60294;64.134;-21.862;2023-01-24T16:29:41;9.00;;;1.27;;
72337;SDS011;60294;64.134;-21.862;2023-01-24T16:32:21;11.73;;;1.70;;
72337;SDS011;60294;64.134;-21.862;2023-01-24T16:34:53;8.47;;;1.67;;
72337;SDS011;60294;64.134;-21.862;2023-01-24T16:37:19;5.30;;;1.60;;
72337;SDS011;60294;64.134;-21.862;2023-01-24T16:39:45;3.17;;;0.83;;
72337;SDS011;60294;64.134;-21.862;2023-01-24T16:42:12;10.87;;;1.43;;
72337;SDS011;60294;64.134;-21.862;2023-01-24T16:44:40;9.00;;;1.63;;
72337;SDS011;60294;64.134;-21.862;2023-01-24T16:47:08;8.80;;;2.23;;
72337;SDS011;60294;64.134;-21.862;2023-01-24T16:49:35;10.97;;;2.23;;
72337;SDS011;60294;64.134;-21.862;2023-01-24T16:52:01;6.70;;;1.20;;
72337;SDS011;60294;64.134;-21.862;2023-01-24T16:54:27;6.70;;;1.33;;
72337;SDS011;60294;64.134;-21.862;2023-01-24T16:56:56;14.57;;;2.10;;
72337;SDS011;60294;64.134;-21.862;2023-01-24T16:59:24;13.57;;;1.83;;
72337;SDS011;60294;64.134;-21.862;2023-01-24T17:01:51;5.77;;;1.43;;
72337;SDS011;60294;64.134;-21.862;2023-01-24T17:04:17;12.70;;;1.33;;
72337;SDS011;60294;64.134;-21.862;2023-01-24T17:06:43;13.13;;;2.07;;
72337;SDS011;60294;64.134;-21.862;2023-01-24T17:09:08;7.53;;;1.30;;
72337;SDS011;60294;64.134;-21.862;2023-01-24T17:11:34;9.20;;;1.37;;
72337;SDS011;60294;64.134;-21.862;2023-01-24T17:14:00;12.57;;;1.47;;
72337;SDS011;60294;64.134;-21.862;2023-01-24T17:16:26;7.27;;;1.23;;
72337;SDS011;60294;64.134;-21.862;2023-01-24T17:18:57;16.07;;;2.17;;
72337;SDS011;60294;64.134;-21.862;2023-01-24T17:21:26;5.77;;;1.23;;
72337;SDS011;60294;64.134;-21.862;2023-01-24T17:23:55;3.53;;;0.63;;
72337;SDS011;60294;64.134;-21.862;2023-01-24T17:26:21;10.03;;;1.53;;
72337;SDS011;60294;64.134;-21.862;2023-01-24T17:28:47;6.20;;;1.03;;
72337;SDS011;60294;64.134;-21.862;2023-01-24T17:31:15;4.77;;;0.90;;
72337;SDS011;60294;64.134;-21.862;2023-01-24T17:33:42;9.87;;;1.10;;
72337;SDS011;60294;64.134;-21.862;2023-01-24T17:36:09;8.20;;;1.70;;
72337;SDS011;60294;64.134;-21.862;2023-01-24T17:38:37;7.40;;;1.60;;
72337;SDS011;60294;64.134;-21.862;2023-01-24T17:41:06;11.50;;;2.23;;
72337;SDS011;60294;64.134;-21.862;2023-01-24T17:43:42;13.53;;;2.67;;
72337;SDS011;60294;64.134;-21.862;2023-01-24T17:46:10;9.57;;;1.30;;